D/T METAR WX W/DIR W/SPE G/SPE TEMP DEWP
25/02/20 15:20 EGAA 251520Z 25011KT 9999 VCSH FEW012 BKN017CB 04/02 Q0992 VCSH WSW (250°) 12.7mph 4°C 2°C
25/02/20 14:50 EGAA 251450Z 24013KT 9999 SCT012 BKN022 03/02 Q0992 WSW (240°) 15.0mph 3°C 2°C
25/02/20 14:20 EGAA 251420Z 27016KT 250V330 9999 -RA FEW012 BKN016 BKN022 03/02 Q0993 -RA W (270°) 18.4mph 3°C 2°C
25/02/20 13:50 EGAA 251350Z 27012KT 9999 SHRA BKN016 05/02 Q0993 SHRA W (270°) 13.8mph 5°C 2°C
25/02/20 13:20 EGAA 251320Z 25012KT 9999 SCT018 SCT022CB 05/03 Q0993 WSW (250°) 13.8mph 5°C 3°C
25/02/20 12:50 EGAA 251250Z 24013KT 9999 BKN018 04/02 Q0993 WSW (240°) 15.0mph 4°C 2°C
25/02/20 12:20 EGAA 251220Z 24014KT 9999 BKN022 05/03 Q0994 WSW (240°) 16.1mph 5°C 3°C
25/02/20 11:50 EGAA 251150Z 24015KT 9999 FEW009 BKN015 04/02 Q0994 WSW (240°) 17.3mph 4°C 2°C
25/02/20 11:20 EGAA 251120Z 24014KT 9999 SCT009 BKN014 04/02 Q0994 WSW (240°) 16.1mph 4°C 2°C
25/02/20 10:50 EGAA 251050Z 24013KT 9999 SCT008 BKN012 03/02 Q0994 WSW (240°) 15.0mph 3°C 2°C
25/02/20 09:50 EGAA 250950Z 23010KT 200V270 9999 BKN006 03/02 Q0995 SW (230°) 11.5mph 3°C 2°C
25/02/20 09:20 EGAA 250920Z 22009KT 9999 BKN006 02/02 Q0995 SW (220°) 10.4mph 2°C 2°C
25/02/20 08:50 EGAA 250850Z 22009KT 9999 BKN006 02/01 Q0995 SW (220°) 10.4mph 2°C 1°C
25/02/20 07:50 EGAA 250750Z 22009KT 9999 FEW006 BKN010 02/01 Q0996 SW (220°) 10.4mph 2°C 1°C
25/02/20 07:20 EGAA 250720Z 23011KT 9999 FEW007 BKN010 02/01 Q0996 SW (230°) 12.7mph 2°C 1°C
25/02/20 06:50 EGAA 250650Z 23011KT 9999 FEW007 BKN011 02/01 Q0996 SW (230°) 12.7mph 2°C 1°C
25/02/20 06:20 EGAA 250620Z 23009KT 9999 BKN014 02/01 Q0996 SW (230°) 10.4mph 2°C 1°C
25/02/20 05:50 EGAA 250550Z 23013KT 9999 BKN013 02/01 Q0996 SW (230°) 15.0mph 2°C 1°C
25/02/20 05:20 EGAA 250520Z 23011KT 9999 SCT008 BKN013 02/02 Q0997 SW (230°) 12.7mph 2°C 2°C
25/02/20 04:50 EGAA 250450Z 24012KT 9999 BKN013 02/02 Q0997 WSW (240°) 13.8mph 2°C 2°C
25/02/20 04:20 EGAA 250420Z 23013KT 9999 FEW006 SCT010 BKN015 02/02 Q0997 SW (230°) 15.0mph 2°C 2°C
25/02/20 03:50 EGAA 250350Z 23012KT 9999 BKN009 03/02 Q0998 SW (230°) 13.8mph 3°C 2°C
25/02/20 02:50 EGAA 250250Z 22009KT 9999 -RA SCT012 BKN020 03/02 Q0998 -RA SW (220°) 10.4mph 3°C 2°C
25/02/20 02:20 EGAA 250220Z 22012KT 9999 FEW011 BKN016 BKN022 03/02 Q0999 SW (220°) 13.8mph 3°C 2°C
25/02/20 01:20 EGAA 250120Z 23011KT 9999 FEW010 BKN015 BKN019 02/02 Q0999 SW (230°) 12.7mph 2°C 2°C
25/02/20 00:50 EGAA 250050Z 23012KT 9999 SCT010 BKN015 BKN023 03/02 Q1000 SW (230°) 13.8mph 3°C 2°C
25/02/20 00:20 EGAA 250020Z 23013KT 9999 SCT009 SCT013 BKN048 03/02 Q1000 SW (230°) 15.0mph 3°C 2°C
24/02/20 23:20 EGAA 242320Z 23015KT 9999 FEW013 SCT040 03/02 Q1000 SW (230°) 17.3mph 3°C 2°C
24/02/20 22:50 EGAA 242250Z 22011KT 9999 FEW013 SCT046 03/02 Q1001 SW (220°) 12.7mph 3°C 2°C
24/02/20 22:20 EGAA 242220Z 21006KT 9999 FEW026 BKN032 03/02 Q1001 SSW (210°) 6.9mph 3°C 2°C
24/02/20 21:50 EGAA 242150Z 24009KT 9999 FEW022 SCT038 BKN046 03/02 Q1001 WSW (240°) 10.4mph 3°C 2°C
24/02/20 21:20 EGAA 242120Z 24010KT 9999 FEW028 SCT042 03/01 Q1001 WSW (240°) 11.5mph 3°C 1°C
24/02/20 20:50 EGAA 242050Z 24010KT 9999 FEW026 03/01 Q1001 WSW (240°) 11.5mph 3°C 1°C
24/02/20 20:20 EGAA 242020Z 24010KT 9999 FEW018 03/02 Q1001 WSW (240°) 11.5mph 3°C 2°C
24/02/20 19:50 EGAA 241950Z 26010KT 9999 SCT017 BKN046 03/02 Q1001 W (260°) 11.5mph 3°C 2°C
24/02/20 18:50 EGAA 241850Z 26014KT 9999 SCT018 BKN024 04/03 Q1001 W (260°) 16.1mph 4°C 3°C
24/02/20 18:20 EGAA 241820Z 26016KT 9999 SCT016 BKN027 04/03 Q1001 W (260°) 18.4mph 4°C 3°C
24/02/20 17:20 EGAA 241720Z 26014KT 9999 BKN019 BKN038 05/03 Q1000 W (260°) 16.1mph 5°C 3°C
24/02/20 16:50 EGAA 241650Z 26017KT 9999 FEW020 BKN034 05/03 Q1000 W (260°) 19.6mph 5°C 3°C
24/02/20 16:20 EGAA 241620Z 27016KT 9999 BKN026 05/03 Q0999 W (270°) 18.4mph 5°C 3°C
24/02/20 15:20 EGAA 241520Z 28016KT 9999 BKN018 06/04 Q0998 W (280°) 18.4mph 6°C 4°C
24/02/20 14:50 EGAA 241450Z 27018KT 9999 SCT016 BKN023 BKN045 05/03 Q0998 W (270°) 20.7mph 5°C 3°C
24/02/20 14:20 EGAA 241420Z 26019KT 9999 BKN011 BKN016 05/04 Q0998 W (260°) 21.9mph 5°C 4°C
24/02/20 13:20 EGAA 241320Z 25014KT 5000 HZ BKN009 05/04 Q0997 HZ WSW (250°) 16.1mph 5°C 4°C
24/02/20 12:50 EGAA 241250Z 26020KT 9999 FEW005 SCT011 BKN016 05/04 Q0997 W (260°) 23.0mph 5°C 4°C
24/02/20 12:20 EGAA 241220Z 24015KT 9999 FEW003 BKN006 05/05 Q0996 WSW (240°) 17.3mph 5°C 5°C
24/02/20 11:20 EGAA 241120Z 25009KT 4000 BR BKN002 05/05 Q0995 BR WSW (250°) 10.4mph 5°C 5°C
24/02/20 10:50 EGAA 241050Z 23008KT 3000 BR BKN002 05/05 Q0995 BR SW (230°) 9.2mph 5°C 5°C